createdAt,value
2018-12-11T00:04:32.082Z,98708.06
2018-12-11T00:08:36.167Z,98701.34
2018-12-11T00:12:40.258Z,98705.63
2018-12-11T00:16:44.613Z,98714.34
2018-12-11T00:20:48.766Z,98720.94
2018-12-11T00:24:52.849Z,98719.78
2018-12-11T00:28:56.986Z,98722.70
2018-12-11T00:33:01.134Z,98724.43
2018-12-11T00:37:05.227Z,98721.89
2018-12-11T00:41:09.383Z,98726.33
2018-12-11T00:45:13.486Z,98732.31
2018-12-11T00:49:17.549Z,98726.66
2018-12-11T00:53:21.649Z,98731.76
2018-12-11T00:57:25.724Z,98729.73
2018-12-11T01:01:29.793Z,98723.25
2018-12-11T01:05:33.853Z,98731.20
2018-12-11T01:09:37.933Z,98729.81
2018-12-11T01:13:42.024Z,98728.87
2018-12-11T01:17:46.107Z,98729.09
2018-12-11T01:21:50.198Z,98734.91
2018-12-11T01:25:54.322Z,98736.84
2018-12-11T01:29:58.385Z,98733.75
2018-12-11T01:34:02.458Z,98738.39
2018-12-11T01:38:06.865Z,98732.22
2018-12-11T01:42:10.946Z,98740.90
2018-12-11T01:46:15.001Z,98741.77
2018-12-11T01:50:19.067Z,98736.66
2018-12-11T01:54:23.177Z,98741.03
2018-12-11T01:58:27.254Z,98744.17
2018-12-11T02:02:31.316Z,98748.70
2018-12-11T02:06:35.481Z,98739.77
2018-12-11T02:10:39.567Z,98735.50
2018-12-11T02:14:43.651Z,98740.27
2018-12-11T02:18:48.734Z,98738.66
2018-12-11T02:22:52.813Z,98738.20
2018-12-11T02:26:57.004Z,98734.67
2018-12-11T02:31:01.194Z,98737.52
2018-12-11T02:35:06.565Z,98740.41
2018-12-11T02:39:10.776Z,98738.94
2018-12-11T02:43:14.836Z,98742.10
2018-12-11T02:47:19.032Z,98741.60
2018-12-11T02:51:23.246Z,98736.50
2018-12-11T02:55:28.513Z,98736.94
2018-12-11T02:59:32.641Z,98733.94
2018-12-11T03:03:36.745Z,98731.80
2018-12-11T03:07:40.830Z,98735.50
2018-12-11T03:11:44.910Z,98734.80
2018-12-11T03:15:49.076Z,98736.55
2018-12-11T03:19:53.140Z,98734.73
2018-12-11T03:23:57.216Z,98742.81
2018-12-11T03:28:01.287Z,98746.48
2018-12-11T03:32:05.635Z,98740.41
2018-12-11T03:36:09.784Z,98734.81
2018-12-11T03:40:14.013Z,98750.48
2018-12-11T03:44:18.264Z,98741.62
2018-12-11T03:48:22.484Z,98749.50
2018-12-11T03:52:26.529Z,98753.28
2018-12-11T03:56:30.655Z,98736.68
2018-12-11T04:00:34.762Z,98740.12
2018-12-11T04:04:38.988Z,98739.72
2018-12-11T04:08:43.061Z,98734.38
2018-12-11T04:12:47.122Z,98736.14
2018-12-11T04:16:51.185Z,98741.31
2018-12-11T04:20:55.261Z,98740.06
2018-12-11T04:24:59.338Z,98741.84
2018-12-11T04:29:03.409Z,98733.44
2018-12-11T04:33:07.520Z,98733.33
2018-12-11T04:37:11.694Z,98739.73
2018-12-11T04:41:15.776Z,98739.19
2018-12-11T04:45:19.978Z,98744.80
2018-12-11T04:49:24.065Z,98747.14
2018-12-11T04:53:28.125Z,98748.38
2018-12-11T04:57:32.208Z,98746.60
2018-12-11T05:01:36.306Z,98756.69
2018-12-11T05:05:40.427Z,98744.50
2018-12-11T05:09:44.476Z,98745.50
2018-12-11T05:13:48.545Z,98748.86
2018-12-11T05:17:52.721Z,98741.16
2018-12-11T05:21:56.798Z,98741.55
2018-12-11T05:26:00.931Z,98736.16
2018-12-11T05:30:07.389Z,98752.36
2018-12-11T05:34:12.289Z,98748.70
2018-12-11T05:38:16.349Z,98751.81
2018-12-11T05:42:20.447Z,98754.96
2018-12-11T05:46:24.616Z,98752.12
2018-12-11T05:50:28.735Z,98748.39
2018-12-11T05:54:32.889Z,98746.29
2018-12-11T05:58:37.086Z,98755.11
2018-12-11T06:02:41.162Z,98754.39
2018-12-11T06:06:45.241Z,98754.12
2018-12-11T06:10:49.353Z,98749.65
2018-12-11T06:14:53.405Z,98750.98
2018-12-11T06:18:57.581Z,98747.20
2018-12-11T06:23:01.937Z,98742.70
2018-12-11T06:27:06.017Z,98738.64
2018-12-11T06:31:10.162Z,98744.31
2018-12-11T06:35:14.277Z,98753.77
2018-12-11T06:39:18.335Z,98750.09
2018-12-11T06:43:22.405Z,98749.91
2018-12-11T06:47:26.626Z,98754.96
2018-12-11T06:51:30.703Z,98756.34
2018-12-11T06:55:34.888Z,98758.69
2018-12-11T06:59:38.956Z,98766.20
2018-12-11T07:03:43.040Z,98767.89
2018-12-11T07:07:47.170Z,98768.23
2018-12-11T07:11:51.253Z,98774.05
2018-12-11T07:15:55.375Z,98778.71
2018-12-11T07:20:00.319Z,98782.61
2018-12-11T07:24:04.412Z,98774.91
2018-12-11T07:28:08.515Z,98781.06
2018-12-11T07:32:12.649Z,98787.84
2018-12-11T07:36:16.712Z,98786.85
2018-12-11T07:40:20.798Z,98790.12
2018-12-11T07:44:24.886Z,98787.05
2018-12-11T07:48:28.969Z,98796.87
2018-12-11T07:52:33.033Z,98802.31
2018-12-11T07:56:37.246Z,98789.24
2018-12-11T08:00:41.394Z,98792.00
2018-12-11T08:04:45.464Z,98792.35
2018-12-11T08:08:49.597Z,98794.59
2018-12-11T08:12:53.652Z,98792.93
2018-12-11T08:16:57.800Z,98793.53
2018-12-11T08:21:02.003Z,98792.86
2018-12-11T08:25:06.764Z,98788.12
2018-12-11T08:29:10.830Z,98784.59
2018-12-11T08:33:14.909Z,98782.50
2018-12-11T08:37:18.988Z,98779.02
2018-12-11T08:41:23.113Z,98766.43
2018-12-11T08:45:27.165Z,98772.82
2018-12-11T08:49:31.225Z,98789.34
2018-12-11T08:53:35.385Z,98793.27
2018-12-11T08:57:39.729Z,98798.63
2018-12-11T09:01:43.806Z,98801.97
2018-12-11T09:05:47.887Z,98790.83
2018-12-11T09:09:51.941Z,98800.38
2018-12-11T09:13:56.092Z,98803.69
2018-12-11T09:18:00.225Z,98807.98
2018-12-11T09:22:04.326Z,98812.27
2018-12-11T09:26:08.601Z,98816.09
2018-12-11T09:30:12.744Z,98812.59
2018-12-11T09:34:18.214Z,98813.25
2018-12-11T09:38:22.629Z,98815.97
2018-12-11T09:42:28.100Z,98807.18
2018-12-11T09:46:32.376Z,98806.14
2018-12-11T09:50:36.574Z,98806.33
2018-12-11T09:54:40.654Z,98811.09
2018-12-11T09:58:44.738Z,98809.45
2018-12-11T10:02:48.901Z,98807.39
2018-12-11T10:06:53.064Z,98796.53
2018-12-11T10:10:57.150Z,98801.24
2018-12-11T10:15:01.225Z,98791.68
2018-12-11T10:19:05.364Z,98786.58
2018-12-11T10:23:09.993Z,98793.83
2018-12-11T10:27:14.138Z,98791.54
2018-12-11T10:31:18.220Z,98791.41
2018-12-11T10:35:22.444Z,98787.61
2018-12-11T10:39:26.496Z,98779.85
2018-12-11T10:43:30.673Z,98770.70
2018-12-11T10:47:34.810Z,98764.71
2018-12-11T10:51:38.910Z,98760.40
2018-12-11T10:55:42.990Z,98766.83
2018-12-11T10:59:47.045Z,98770.70
2018-12-11T11:03:51.502Z,98764.14
2018-12-11T11:07:56.023Z,98768.21
2018-12-11T11:12:00.103Z,98769.75
2018-12-11T11:16:04.315Z,98765.70
2018-12-11T11:20:08.505Z,98767.08
2018-12-11T11:24:12.615Z,98765.34
2018-12-11T11:28:16.797Z,98759.71
2018-12-11T11:32:20.909Z,98763.98
2018-12-11T11:36:25.845Z,98759.14
2018-12-11T11:40:29.993Z,98762.62
2018-12-11T11:44:34.142Z,98761.67
2018-12-11T11:48:39.403Z,98755.28
2018-12-11T11:52:43.494Z,98749.66
2018-12-11T11:56:47.566Z,98751.97
2018-12-11T12:00:51.653Z,98750.05
2018-12-11T12:04:55.781Z,98750.77
2018-12-11T12:08:59.866Z,98750.19
2018-12-11T12:13:04.045Z,98743.59
2018-12-11T12:17:08.166Z,98747.59
2018-12-11T12:21:12.236Z,98741.16
2018-12-11T12:25:16.341Z,98736.58
2018-12-11T12:29:20.447Z,98734.13
2018-12-11T12:33:24.533Z,98733.42
2018-12-11T12:37:28.620Z,98717.95
2018-12-11T12:41:32.799Z,98716.58
2018-12-11T12:45:36.893Z,98725.17
2018-12-11T12:49:41.032Z,98716.47
2018-12-11T12:53:45.164Z,98717.11
2018-12-11T12:57:49.245Z,98715.31
2018-12-11T13:01:53.384Z,98717.66
2018-12-11T13:05:57.484Z,98719.58
2018-12-11T13:10:01.545Z,98722.36
2018-12-11T13:14:06.690Z,98724.30
2018-12-11T13:18:10.819Z,98723.16
2018-12-11T13:22:14.904Z,98724.67
2018-12-11T13:26:19.043Z,98727.89
2018-12-11T13:30:23.148Z,98718.91
2018-12-11T13:34:27.209Z,98715.36
2018-12-11T13:38:31.289Z,98722.65
2018-12-11T13:42:35.537Z,98720.92
2018-12-11T13:46:39.700Z,98718.38
2018-12-11T13:50:43.835Z,98728.23
2018-12-11T13:54:47.921Z,98727.69
2018-12-11T13:58:52.006Z,98730.26
2018-12-11T14:02:56.081Z,98734.40
2018-12-11T14:07:00.191Z,98731.74
2018-12-11T14:11:04.413Z,98729.09
2018-12-11T14:15:08.925Z,98731.64
2018-12-11T14:19:12.997Z,98723.94
2018-12-11T14:23:17.071Z,98725.08
2018-12-11T14:27:21.156Z,98714.64
2018-12-11T14:31:25.216Z,98721.59
2018-12-11T14:35:29.328Z,98711.53
2018-12-11T14:39:33.544Z,98712.30
2018-12-11T14:43:37.617Z,98714.03
2018-12-11T14:47:41.696Z,98720.20
2018-12-11T14:51:46.357Z,98717.72
2018-12-11T14:55:50.455Z,98719.22
2018-12-11T14:59:54.541Z,98723.86
2018-12-11T15:03:58.653Z,98717.29
2018-12-11T15:08:02.842Z,98722.91
2018-12-11T15:12:06.909Z,98723.46
2018-12-11T15:16:11.249Z,98721.53
2018-12-11T15:20:15.417Z,98723.23
2018-12-11T15:24:19.554Z,98724.63
2018-12-11T15:28:23.628Z,98727.34
2018-12-11T15:32:27.749Z,98724.59
2018-12-11T15:36:31.822Z,98719.99
2018-12-11T15:40:35.976Z,98724.98
2018-12-11T15:44:40.034Z,98722.70
2018-12-11T15:48:44.285Z,98720.02
2018-12-11T15:52:48.357Z,98721.56
2018-12-11T15:56:52.726Z,98721.75
2018-12-11T16:00:56.815Z,98724.27
2018-12-11T16:05:00.878Z,98725.44
2018-12-11T16:13:34.441Z,98729.68
2018-12-11T16:17:38.546Z,98734.69
2018-12-11T16:21:42.644Z,98730.58
2018-12-11T16:26:05.421Z,98730.58
2018-12-11T16:30:10.781Z,98738.64
2018-12-11T16:34:14.864Z,98745.41
2018-12-11T16:38:47.125Z,98745.05
2018-12-11T16:42:51.208Z,98737.92
2018-12-11T16:46:55.352Z,98741.80
2018-12-11T16:55:20.696Z,98748.17
2018-12-11T17:03:48.957Z,98746.45
2018-12-11T17:07:53.025Z,98744.12
2018-12-11T17:11:57.281Z,98750.69
2018-12-11T17:16:01.360Z,98751.96
2018-12-11T17:20:06.857Z,98750.03
2018-12-11T17:28:49.057Z,98761.46
2018-12-11T17:32:53.153Z,98764.73
2018-12-11T17:36:57.262Z,98769.03
2018-12-11T17:41:01.426Z,98769.04
2018-12-11T17:45:06.766Z,98767.32
2018-12-11T17:49:10.855Z,98771.16
2018-12-11T17:53:14.937Z,98763.04
2018-12-11T17:57:47.076Z,98764.98
2018-12-11T18:10:49.110Z,98764.39
2018-12-11T18:14:53.189Z,98769.44
2018-12-11T18:18:57.285Z,98769.44
2018-12-11T18:23:01.374Z,98770.40
2018-12-11T18:27:05.731Z,98772.16
2018-12-11T18:31:09.794Z,98771.57
2018-12-11T18:35:15.914Z,98781.44
2018-12-11T18:39:20.094Z,98776.80
2018-12-11T18:43:24.206Z,98782.75
2018-12-11T18:47:50.109Z,98777.92
2018-12-11T18:56:11.293Z,98777.33
2018-12-11T19:00:15.724Z,98782.14
2018-12-11T19:04:19.893Z,98781.15
2018-12-11T19:08:23.998Z,98778.03
2018-12-11T19:12:28.086Z,98776.31
2018-12-11T19:16:32.171Z,98776.92
2018-12-11T19:20:36.234Z,98779.28
2018-12-11T19:24:40.460Z,98782.22
2018-12-11T19:28:45.484Z,98778.39
2018-12-11T19:32:51.517Z,98788.86
2018-12-11T19:36:56.298Z,98781.53
2018-12-11T19:41:00.474Z,98785.02
2018-12-11T19:45:06.165Z,98782.31
2018-12-11T19:49:10.254Z,98780.33
2018-12-11T19:53:14.358Z,98776.20
2018-12-11T19:57:18.525Z,98773.04
2018-12-11T20:01:22.682Z,98773.00
2018-12-11T20:14:48.747Z,98762.97
2018-12-11T20:23:48.020Z,98764.32
2018-12-11T20:32:30.726Z,98754.79
2018-12-11T20:41:13.576Z,98749.73
2018-12-11T20:45:17.656Z,98749.71
2018-12-11T20:49:46.984Z,98750.79
2018-12-11T20:53:51.083Z,98749.42
2018-12-11T21:06:50.709Z,98756.97
2018-12-11T21:10:54.793Z,98749.79
2018-12-11T21:14:58.874Z,98758.22
2018-12-11T21:23:48.659Z,98754.31
2018-12-11T21:32:48.434Z,98751.61
2018-12-11T21:36:52.517Z,98755.28
2018-12-11T21:40:56.631Z,98749.25
2018-12-11T21:45:00.723Z,98744.98
2018-12-11T21:49:04.833Z,98742.26
2018-12-11T21:53:08.930Z,98730.70
2018-12-11T21:57:13.033Z,98737.27
2018-12-11T22:01:17.117Z,98740.77
2018-12-11T22:05:21.248Z,98749.14
2018-12-11T22:09:49.851Z,98749.91
2018-12-11T22:13:53.917Z,98747.38
2018-12-11T22:17:58.001Z,98748.92
2018-12-11T22:22:02.881Z,98755.33
2018-12-11T22:26:06.975Z,98763.70
2018-12-11T22:30:11.064Z,98765.31
2018-12-11T22:34:15.143Z,98774.81
2018-12-11T22:38:47.678Z,98770.95
2018-12-11T22:42:51.858Z,98766.52
2018-12-11T22:46:55.974Z,98759.31
2018-12-11T22:51:00.042Z,98759.79
2018-12-11T22:55:04.952Z,98755.74
2018-12-11T22:59:09.037Z,98757.42
2018-12-11T23:03:13.118Z,98763.09
2018-12-11T23:07:17.205Z,98770.64
2018-12-11T23:11:47.276Z,98771.80
2018-12-11T23:15:51.359Z,98776.18
2018-12-11T23:19:55.439Z,98762.83
2018-12-11T23:23:59.581Z,98764.28
2018-12-11T23:28:04.642Z,98761.42
2018-12-11T23:32:08.778Z,98766.63
2018-12-11T23:36:12.880Z,98754.56
2018-12-11T23:40:17.065Z,98769.11
2018-12-11T23:44:21.181Z,98769.77
2018-12-11T23:48:26.357Z,98761.75
2018-12-11T23:52:30.429Z,98755.98
2018-12-11T23:56:34.517Z,98757.14
